This is the latest recevied weather packets stored in our database for station/object KE4BFX. If no packets are shown the sender has not sent any weather packets the latest 10 day(s).
| Time | Temp. | Humidity | Pressure | Rain* | Wind** | Luminosity | Snow |
|---|---|---|---|---|---|---|---|
| 1777945216 | 17.78° C | 72% | 1021.5 hPa | 0 mm | - | 0 W/m² | - |
| 1777944616 | 17.78° C | 70% | 1021.5 hPa | 0 mm | - | 0 W/m² | - |
| 1777940416 | 20.56° C | 63% | 1021.5 hPa | 0 mm | - | 9 W/m² | - |
| 1777929016 | 25.56° C | 46% | 1021.5 hPa | 0 mm | - | 642 W/m² | - |
| 1777924816 | 26.67° C | 43% | 1021.5 hPa | 0 mm | - | 823 W/m² | - |
| 1777920017 | 26.67° C | 39% | 1021.5 hPa | 0 mm | - | 926 W/m² | - |
| 1777917617 | 26.11° C | 42% | 1021.5 hPa | 0 mm | - | 940 W/m² | - |
| 1777916416 | 26.67° C | 40% | 1021.5 hPa | 0 mm | - | 944 W/m² | - |
| 1777913417 | 25.56° C | 44% | 1021.5 hPa | 0 mm | - | 911 W/m² | - |
| 1777912217 | 25° C | 48% | 1021.5 hPa | 0 mm | - | 884 W/m² | - |
| 1777896017 | 10° C | 88% | 1021.5 hPa | 0 mm | - | 35 W/m² | - |
| 1777891817 | 10° C | 88% | 1021.5 hPa | 0 mm | - | 0 W/m² | - |
| 1777886418 | 10.56° C | 87% | 1021.5 hPa | 0 mm | - | 0 W/m² | - |
| 1777885818 | 11.11° C | 87% | 1021.5 hPa | 0 mm | - | 0 W/m² | - |
| 1777878618 | 11.67° C | 86% | 1021.5 hPa | 0 mm | - | 0 W/m² | - |
| 1777864818 | 14.44° C | 76% | 1021.5 hPa | 0 mm | - | 0 W/m² | - |
| 1777861219 | 16.11° C | 69% | 1021.5 hPa | 0 mm | - | 0 W/m² | - |
| 1777857619 | 18.33° C | 62% | 1021.5 hPa | 0 mm | - | 0 W/m² | - |
| 1777854019 | 21.67° C | 47% | 1021.5 hPa | 0 mm | - | 9 W/m² | - |
| 1777851018 | 24.44° C | 38% | 1021.5 hPa | 0 mm | - | 33 W/m² | - |
| 1777850419 | 24.44° C | 37% | 1021.5 hPa | 0 mm | - | 169 W/m² | - |
| 1777848618 | 25.56° C | 36% | 1021.5 hPa | 0 mm | - | 299 W/m² | - |
| 1777845619 | 26.11° C | 36% | 1021.5 hPa | 0 mm | - | 476 W/m² | - |
| 1777843818 | 26.11° C | 36% | 1021.5 hPa | 0 mm | - | 582 W/m² | - |
| 1777842019 | 26.67° C | 36% | 1021.5 hPa | 0 mm | - | 663 W/m² | - |
* Rain latest hour (hover to see other rain measurements)
** Current wind speed in m/s (hover to see current wind gust speed)